Terminal Aerodrome Forecast
Issued by NWS Wilmington, NC

Current Version | Previous Version | Graphics & Text | Print | Product List | Glossary Off
Versions: 1 2 3 4 5 6 7 8 9 10 11 12 13 14 15 16 17 18 19 20

000
FTUS42 KILM 251700
TAFLBT
TAF
KLBT 251722Z 2518/2618 02005KT P6SM SCT030 BKN100
      TEMPO 2518/2521 BKN030
     FM260000 00000KT P6SM SCT040 SCT090
     FM260600 00000KT 3SM BR FEW003 SCT060
     FM261400 22004KT P6SM SCT020 SCT090=

USA.gov is the U.S. government's official web portal to all federal, state and local government web resources and services.